Amazonia, Missouri
Current Conditions -  °F | °C
As of 9:53 AM on Wednesday 22 Oct 2014 (Local Time) from KSTJ Reporting Station
Broken Clouds Broken Clouds  
Wind Chill: 57°   Ceiling: 6000
Heat Index: 57°   Visibility: 10mi
Dew Point: 47°   Wind: 10mph
Humidity: 69%   Direction: 140°SE
Pressure: 30.19"   Gusts: NA
Location:  39.89°N, 94.89°W
Report Text: KSTJ 221453Z 14009KT 10SM FEW043 BKN060 14/08 A3019 RMK AO2 SLP221 T01390083 51007
Loading
Personal Weather Stations






























Interactive Weather Map
Tropical Storm Tracking
New forecast layout! Learn more

10-Day Weather Forecast

Advertisements
Track Severe Weather on mobile